createdAt,value
2023-02-27T00:02:17.033Z,1.20
2023-02-27T00:04:43.880Z,1.10
2023-02-27T00:07:10.577Z,1.30
2023-02-27T00:09:37.332Z,1.48
2023-02-27T00:12:04.151Z,1.20
2023-02-27T00:14:30.838Z,1.20
2023-02-27T00:16:57.438Z,2.25
2023-02-27T00:19:24.076Z,1.30
2023-02-27T00:21:50.756Z,1.40
2023-02-27T00:24:17.444Z,1.60
2023-02-27T00:26:44.105Z,1.75
2023-02-27T00:29:10.824Z,1.48
2023-02-27T00:31:37.716Z,1.55
2023-02-27T00:34:04.514Z,1.42
2023-02-27T00:36:31.346Z,1.25
2023-02-27T00:38:58.022Z,1.08
2023-02-27T00:41:24.908Z,1.13
2023-02-27T00:43:51.926Z,0.95
2023-02-27T00:46:18.618Z,1.48
2023-02-27T00:48:45.414Z,1.45
2023-02-27T00:51:12.370Z,0.98
2023-02-27T00:53:39.019Z,1.08
2023-02-27T00:56:05.960Z,1.27
2023-02-27T00:58:32.607Z,1.30
2023-02-27T01:01:00.193Z,1.50
2023-02-27T01:03:26.906Z,1.45
2023-02-27T01:05:53.587Z,1.58
2023-02-27T01:08:20.311Z,1.73
2023-02-27T01:10:46.988Z,1.92
2023-02-27T01:13:13.599Z,1.42
2023-02-27T01:15:40.220Z,1.13
2023-02-27T01:18:06.827Z,1.38
2023-02-27T01:20:33.553Z,1.30
2023-02-27T01:23:00.292Z,2.10
2023-02-27T01:25:27.035Z,1.63
2023-02-27T01:27:53.758Z,1.05
2023-02-27T01:30:20.498Z,1.30
2023-02-27T01:32:47.208Z,1.30
2023-02-27T01:35:14.129Z,0.90
2023-02-27T01:37:40.904Z,1.30
2023-02-27T01:40:08.179Z,0.98
2023-02-27T01:42:34.992Z,1.15
2023-02-27T01:45:24.341Z,1.33
2023-02-27T01:47:53.346Z,1.58
2023-02-27T01:50:20.188Z,1.42
2023-02-27T01:52:55.666Z,1.15
2023-02-27T01:55:22.689Z,1.55
2023-02-27T01:57:49.679Z,1.50
2023-02-27T02:00:16.853Z,0.95
2023-02-27T02:02:47.798Z,1.60
2023-02-27T02:05:14.518Z,1.00
2023-02-27T02:07:41.249Z,1.20
2023-02-27T02:10:08.363Z,0.93
2023-02-27T02:12:36.019Z,0.90
2023-02-27T02:15:06.663Z,1.10
2023-02-27T02:17:46.622Z,1.05
2023-02-27T02:20:35.037Z,1.02
2023-02-27T02:23:34.897Z,1.23
2023-02-27T02:26:24.882Z,0.93
2023-02-27T02:29:16.347Z,1.38
2023-02-27T02:32:22.219Z,1.17
2023-02-27T02:35:07.872Z,1.33
2023-02-27T02:38:16.915Z,0.93
2023-02-27T02:41:13.027Z,1.02
2023-02-27T02:43:57.813Z,1.05
2023-02-27T02:46:55.835Z,0.95
2023-02-27T02:49:45.915Z,1.58
2023-02-27T02:52:25.120Z,1.02
2023-02-27T02:54:59.704Z,1.27
2023-02-27T02:57:42.598Z,1.30
2023-02-27T03:00:22.029Z,1.20
2023-02-27T03:02:52.655Z,1.83
2023-02-27T03:05:34.948Z,1.52
2023-02-27T03:08:04.866Z,1.20
2023-02-27T03:10:49.691Z,1.23
2023-02-27T03:13:50.393Z,0.98
2023-02-27T03:16:28.526Z,1.90
2023-02-27T03:19:12.411Z,1.20
2023-02-27T03:21:57.180Z,1.27
2023-02-27T03:24:30.210Z,1.27
2023-02-27T03:26:57.306Z,1.15
2023-02-27T03:29:30.074Z,1.30
2023-02-27T03:31:58.702Z,1.20
2023-02-27T03:34:31.916Z,1.92
2023-02-27T03:37:16.625Z,1.58
2023-02-27T03:39:43.180Z,1.30
2023-02-27T03:42:32.499Z,1.23
2023-02-27T03:45:06.458Z,1.08
2023-02-27T03:47:33.435Z,1.10
2023-02-27T03:50:00.244Z,1.48
2023-02-27T03:52:27.177Z,1.67
2023-02-27T03:54:59.494Z,1.55
2023-02-27T03:57:26.341Z,1.30
2023-02-27T03:59:53.028Z,1.90
2023-02-27T04:02:19.922Z,1.80
2023-02-27T04:04:46.779Z,1.67
2023-02-27T04:07:21.659Z,1.13
2023-02-27T04:09:51.579Z,2.65
2023-02-27T04:12:46.061Z,2.08
2023-02-27T04:15:43.862Z,1.67
2023-02-27T04:18:29.334Z,1.40
2023-02-27T04:21:06.178Z,1.75
2023-02-27T04:23:55.841Z,1.52
2023-02-27T04:26:41.608Z,1.70
2023-02-27T04:29:31.256Z,1.65
2023-02-27T04:32:31.588Z,1.48
2023-02-27T04:35:10.076Z,1.90
2023-02-27T04:37:53.681Z,1.70
2023-02-27T04:40:32.396Z,1.90
2023-02-27T04:42:59.372Z,1.70
2023-02-27T04:45:26.488Z,1.90
2023-02-27T04:48:01.395Z,2.03
2023-02-27T04:50:44.143Z,1.85
2023-02-27T04:53:38.815Z,1.92
2023-02-27T04:56:08.548Z,1.75
2023-02-27T04:58:37.987Z,1.95
2023-02-27T05:01:11.646Z,1.98
2023-02-27T05:03:40.661Z,2.22
2023-02-27T05:06:07.287Z,1.80
2023-02-27T05:08:57.006Z,2.03
2023-02-27T05:11:51.666Z,1.83
2023-02-27T05:14:43.897Z,1.98
2023-02-27T05:17:14.648Z,1.90
2023-02-27T05:19:41.686Z,2.22
2023-02-27T05:22:11.699Z,1.83
2023-02-27T05:25:13.377Z,2.15
2023-02-27T05:27:46.403Z,2.00
2023-02-27T05:30:19.829Z,2.25
2023-02-27T05:32:51.050Z,1.98
2023-02-27T05:35:29.125Z,1.92
2023-02-27T05:38:06.373Z,2.17
2023-02-27T05:40:38.184Z,1.98
2023-02-27T05:43:18.765Z,1.95
2023-02-27T05:45:46.877Z,1.80
2023-02-27T05:48:18.441Z,2.78
2023-02-27T05:50:46.087Z,2.40
2023-02-27T05:53:15.036Z,2.08
2023-02-27T05:55:43.994Z,2.33
2023-02-27T05:58:19.304Z,1.92
2023-02-27T06:01:05.783Z,3.40
2023-02-27T06:03:34.210Z,2.05
2023-02-27T06:06:05.242Z,2.10
2023-02-27T06:08:31.896Z,2.13
2023-02-27T06:10:58.660Z,2.13
2023-02-27T06:13:25.633Z,2.40
2023-02-27T06:15:52.426Z,2.95
2023-02-27T06:18:19.277Z,2.50
2023-02-27T06:20:46.514Z,1.92
2023-02-27T06:23:13.283Z,2.30
2023-02-27T06:25:40.086Z,2.85
2023-02-27T06:28:06.694Z,2.88
2023-02-27T06:30:33.346Z,2.42
2023-02-27T06:33:00.054Z,2.95
2023-02-27T06:35:27.276Z,3.08
2023-02-27T06:37:53.988Z,3.03
2023-02-27T06:40:20.673Z,2.42
2023-02-27T06:42:47.324Z,3.20
2023-02-27T06:45:14.675Z,2.50
2023-02-27T06:47:41.723Z,2.10
2023-02-27T06:50:09.623Z,3.00
2023-02-27T06:52:36.718Z,2.30
2023-02-27T06:55:04.585Z,2.42
2023-02-27T06:57:31.396Z,2.75
2023-02-27T06:59:58.015Z,3.78
2023-02-27T07:02:24.608Z,2.17
2023-02-27T07:04:52.110Z,2.20
2023-02-27T07:07:36.132Z,2.50
2023-02-27T07:10:05.973Z,2.85
2023-02-27T07:12:32.572Z,2.70
2023-02-27T07:14:59.257Z,2.63
2023-02-27T07:17:25.985Z,2.78
2023-02-27T07:19:52.624Z,2.20
2023-02-27T07:22:19.256Z,1.98
2023-02-27T07:24:45.958Z,2.40
2023-02-27T07:27:12.712Z,2.25
2023-02-27T07:29:39.436Z,2.58
2023-02-27T07:32:06.168Z,3.10
2023-02-27T07:34:32.893Z,2.80
2023-02-27T07:36:59.691Z,2.47
2023-02-27T07:39:26.402Z,2.50
2023-02-27T07:41:53.233Z,2.08
2023-02-27T07:44:19.988Z,3.25
2023-02-27T07:46:46.808Z,3.08
2023-02-27T07:49:13.614Z,2.13
2023-02-27T07:51:40.312Z,2.85
2023-02-27T07:54:07.054Z,2.13
2023-02-27T07:56:33.901Z,1.90
2023-02-27T07:59:00.597Z,2.30
2023-02-27T08:01:27.226Z,1.85
2023-02-27T08:03:53.843Z,1.80
2023-02-27T08:06:20.517Z,1.95
2023-02-27T08:08:47.241Z,1.70
2023-02-27T08:11:14.082Z,1.80
2023-02-27T08:14:00.414Z,2.10
2023-02-27T08:16:27.931Z,2.30
2023-02-27T08:18:54.966Z,1.73
2023-02-27T08:21:21.678Z,1.67
2023-02-27T08:23:48.375Z,1.88
2023-02-27T08:26:15.099Z,1.73
2023-02-27T08:28:41.850Z,2.05
2023-02-27T08:31:09.530Z,1.85
2023-02-27T08:33:36.326Z,1.83
2023-02-27T08:36:03.172Z,1.85
2023-02-27T08:38:29.945Z,1.55
2023-02-27T08:40:56.630Z,1.70
2023-02-27T08:43:23.387Z,1.60
2023-02-27T08:45:50.527Z,1.63
2023-02-27T08:48:17.701Z,1.40
2023-02-27T08:50:44.637Z,1.42
2023-02-27T08:53:11.741Z,1.92
2023-02-27T08:55:38.563Z,1.58
2023-02-27T08:58:05.361Z,1.77
2023-02-27T09:00:32.119Z,1.58
2023-02-27T09:02:58.894Z,1.67
2023-02-27T09:05:25.668Z,1.70
2023-02-27T09:07:52.383Z,1.52
2023-02-27T09:10:19.194Z,1.20
2023-02-27T09:12:46.899Z,1.65
2023-02-27T09:15:13.511Z,1.60
2023-02-27T09:17:40.149Z,1.30
2023-02-27T09:20:07.354Z,1.65
2023-02-27T09:22:34.011Z,1.27
2023-02-27T09:25:01.727Z,1.50
2023-02-27T09:27:28.466Z,1.60
2023-02-27T09:29:55.231Z,1.30
2023-02-27T09:32:25.241Z,1.80
2023-02-27T09:34:52.020Z,2.20
2023-02-27T09:37:18.726Z,1.83
2023-02-27T09:39:46.394Z,1.90
2023-02-27T09:42:19.945Z,1.73
2023-02-27T09:44:57.677Z,1.40
2023-02-27T09:47:37.834Z,1.40
2023-02-27T09:50:18.235Z,1.67
2023-02-27T09:52:44.929Z,1.63
2023-02-27T09:55:13.168Z,2.00
2023-02-27T09:58:05.157Z,1.88
2023-02-27T10:01:00.686Z,1.90
2023-02-27T10:03:55.123Z,1.88
2023-02-27T10:06:32.488Z,1.80
2023-02-27T10:09:12.209Z,2.03
2023-02-27T10:12:10.798Z,1.77
2023-02-27T10:14:40.110Z,1.55
2023-02-27T10:17:20.289Z,1.60
2023-02-27T10:19:47.212Z,1.30
2023-02-27T10:22:17.555Z,1.70
2023-02-27T10:25:24.787Z,1.88
2023-02-27T10:27:58.801Z,1.33
2023-02-27T10:30:30.893Z,1.30
2023-02-27T10:33:05.823Z,1.13
2023-02-27T10:35:34.555Z,1.20
2023-02-27T10:38:28.346Z,1.40
2023-02-27T10:40:55.531Z,1.30
2023-02-27T10:43:22.311Z,1.27
2023-02-27T10:45:49.100Z,1.35
2023-02-27T10:48:16.721Z,1.27
2023-02-27T10:50:45.547Z,1.10
2023-02-27T10:53:23.276Z,1.02
2023-02-27T10:56:03.267Z,0.93
2023-02-27T10:58:35.112Z,1.25
2023-02-27T11:01:06.408Z,1.35
2023-02-27T11:03:36.020Z,1.50
2023-02-27T11:06:13.344Z,2.17
2023-02-27T11:08:40.202Z,1.58
2023-02-27T11:11:08.881Z,1.30
2023-02-27T11:13:36.646Z,1.33
2023-02-27T11:16:05.119Z,1.13
2023-02-27T11:18:32.047Z,1.38
2023-02-27T11:21:26.573Z,1.30
2023-02-27T11:23:56.574Z,1.40
2023-02-27T11:26:37.523Z,1.25
2023-02-27T11:29:10.003Z,1.08
2023-02-27T11:31:36.903Z,1.38
2023-02-27T11:34:03.757Z,1.70
2023-02-27T11:37:07.215Z,1.10
2023-02-27T11:39:37.030Z,1.30
2023-02-27T11:42:33.288Z,1.50
2023-02-27T11:45:01.805Z,1.45
2023-02-27T11:47:37.401Z,1.33
2023-02-27T11:50:19.872Z,1.60
2023-02-27T11:53:20.432Z,1.40
2023-02-27T11:55:47.158Z,1.00
2023-02-27T11:58:17.813Z,1.15
2023-02-27T12:00:56.868Z,1.02
2023-02-27T12:03:31.838Z,1.10
2023-02-27T12:06:04.327Z,0.77
2023-02-27T12:08:40.535Z,1.10
2023-02-27T12:11:23.003Z,1.02
2023-02-27T12:13:58.513Z,0.88
2023-02-27T12:19:16.053Z,1.20
2023-02-27T12:21:44.926Z,0.95
2023-02-27T12:24:33.709Z,1.10
2023-02-27T12:27:18.748Z,1.33
2023-02-27T12:30:00.301Z,1.15
2023-02-27T12:32:38.884Z,1.30
2023-02-27T12:35:17.292Z,1.33
2023-02-27T12:37:44.089Z,1.17
2023-02-27T12:40:14.790Z,1.23
2023-02-27T12:43:03.610Z,1.23
2023-02-27T12:45:48.331Z,1.13
2023-02-27T12:48:23.409Z,1.10
2023-02-27T12:51:11.351Z,1.23
2023-02-27T12:53:44.310Z,1.23
2023-02-27T12:56:19.226Z,1.10
2023-02-27T12:59:11.589Z,1.10
2023-02-27T13:01:53.376Z,1.17
2023-02-27T13:04:26.230Z,1.40
2023-02-27T13:06:58.415Z,1.40
2023-02-27T13:09:41.134Z,1.40
2023-02-27T13:12:13.790Z,1.40
2023-02-27T13:14:50.919Z,1.27
2023-02-27T13:17:21.387Z,1.02
2023-02-27T13:19:57.387Z,1.50
2023-02-27T13:23:03.073Z,1.30
2023-02-27T13:25:29.751Z,1.35
2023-02-27T13:28:01.901Z,1.20
2023-02-27T13:30:35.878Z,1.40
2023-02-27T13:33:21.510Z,1.17
2023-02-27T13:35:58.082Z,1.13
2023-02-27T13:38:58.610Z,0.70
2023-02-27T13:41:25.293Z,1.08
2023-02-27T13:43:53.538Z,1.20
2023-02-27T13:46:23.800Z,1.35
2023-02-27T13:49:05.352Z,1.40
2023-02-27T13:51:43.920Z,1.23
2023-02-27T13:54:13.335Z,1.30
2023-02-27T13:56:50.666Z,1.48
2023-02-27T13:59:27.135Z,1.20
2023-02-27T14:02:05.067Z,1.20
2023-02-27T14:04:35.299Z,0.90
2023-02-27T14:07:07.014Z,1.40
2023-02-27T14:09:38.243Z,1.13
2023-02-27T14:12:06.534Z,1.38
2023-02-27T14:14:39.349Z,1.10
2023-02-27T14:17:06.243Z,1.10
2023-02-27T14:19:32.937Z,1.20
2023-02-27T14:22:03.422Z,0.93
2023-02-27T14:24:47.004Z,0.80
2023-02-27T14:27:33.042Z,0.98
2023-02-27T14:30:02.155Z,1.38
2023-02-27T14:32:33.612Z,0.82
2023-02-27T14:35:00.302Z,0.85
2023-02-27T14:37:27.025Z,1.02
2023-02-27T14:39:57.369Z,0.80
2023-02-27T14:42:38.799Z,0.90
2023-02-27T14:45:18.981Z,0.77
2023-02-27T14:47:46.798Z,0.55
2023-02-27T14:50:40.293Z,0.90
2023-02-27T14:53:07.359Z,0.80
2023-02-27T14:55:34.976Z,0.80
2023-02-27T14:58:10.082Z,0.73
2023-02-27T15:00:41.402Z,0.40
2023-02-27T15:03:32.677Z,0.60
2023-02-27T15:06:01.079Z,0.50
2023-02-27T15:08:37.800Z,0.70
2023-02-27T15:11:04.733Z,0.63
2023-02-27T15:13:33.125Z,0.40
2023-02-27T15:16:27.658Z,0.55
2023-02-27T15:18:59.965Z,0.70
2023-02-27T15:21:27.914Z,0.68
2023-02-27T15:23:59.530Z,0.80
2023-02-27T15:26:27.122Z,0.57
2023-02-27T15:28:56.431Z,0.70
2023-02-27T15:31:23.970Z,0.70
2023-02-27T15:33:53.657Z,0.65
2023-02-27T15:36:24.899Z,0.90
2023-02-27T15:39:12.478Z,1.10
2023-02-27T15:41:39.849Z,1.00
2023-02-27T15:44:06.588Z,1.08
2023-02-27T15:46:33.328Z,0.60
2023-02-27T15:49:00.053Z,0.65
2023-02-27T15:51:27.146Z,0.73
2023-02-27T15:53:54.914Z,0.70
2023-02-27T15:56:32.431Z,0.60
2023-02-27T15:59:00.966Z,0.90
2023-02-27T16:01:30.450Z,0.85
2023-02-27T16:04:13.728Z,0.75
2023-02-27T16:06:40.464Z,0.80
2023-02-27T16:09:33.090Z,0.80
2023-02-27T16:12:32.249Z,0.70
2023-02-27T16:15:26.183Z,0.80
2023-02-27T16:17:56.789Z,1.20
2023-02-27T16:20:39.665Z,1.25
2023-02-27T16:23:26.326Z,1.02
2023-02-27T16:26:00.227Z,1.00
2023-02-27T16:28:39.767Z,0.90
2023-02-27T16:31:13.702Z,1.17
2023-02-27T16:33:40.466Z,1.23
2023-02-27T16:36:18.640Z,1.00
2023-02-27T16:38:45.442Z,1.08
2023-02-27T16:41:12.650Z,1.20
2023-02-27T16:43:39.440Z,1.52
2023-02-27T16:46:06.251Z,1.00
2023-02-27T16:48:33.219Z,1.42
2023-02-27T16:51:03.187Z,1.42
2023-02-27T16:53:29.904Z,1.08
2023-02-27T16:55:56.597Z,0.85
2023-02-27T16:58:23.265Z,1.15
2023-02-27T17:00:55.733Z,0.90
2023-02-27T17:03:22.387Z,1.17
2023-02-27T17:05:52.337Z,1.23
2023-02-27T17:08:19.083Z,1.10
2023-02-27T17:10:45.718Z,1.10
2023-02-27T17:13:12.407Z,1.30
2023-02-27T17:15:39.204Z,1.65
2023-02-27T17:18:07.047Z,0.90
2023-02-27T17:20:35.249Z,1.00
2023-02-27T17:23:02.032Z,1.80
2023-02-27T17:25:29.029Z,1.60
2023-02-27T17:27:56.944Z,1.23
2023-02-27T17:30:36.640Z,1.30
2023-02-27T17:33:04.354Z,1.40
2023-02-27T17:35:31.062Z,1.40
2023-02-27T17:37:58.639Z,1.10
2023-02-27T17:40:25.997Z,1.50
2023-02-27T17:42:52.599Z,1.67
2023-02-27T17:45:19.234Z,1.23
2023-02-27T17:47:45.917Z,1.55
2023-02-27T17:50:12.590Z,1.73
2023-02-27T17:52:39.364Z,1.80
2023-02-27T17:55:06.514Z,1.55
2023-02-27T17:57:35.806Z,1.52
2023-02-27T18:00:04.164Z,1.83
2023-02-27T18:02:30.862Z,1.92
2023-02-27T18:04:57.453Z,1.60
2023-02-27T18:07:24.410Z,1.40
2023-02-27T18:09:51.083Z,1.35
2023-02-27T18:12:17.828Z,1.70
2023-02-27T18:14:46.948Z,1.95
2023-02-27T18:17:13.667Z,1.95
2023-02-27T18:19:40.874Z,2.00
2023-02-27T18:22:11.128Z,2.15
2023-02-27T18:24:37.808Z,2.08
2023-02-27T18:27:04.524Z,1.95
2023-02-27T18:29:31.158Z,2.30
2023-02-27T18:31:57.912Z,2.08
2023-02-27T18:34:24.639Z,2.10
2023-02-27T18:36:51.644Z,2.67
2023-02-27T18:39:19.502Z,3.40
2023-02-27T18:41:46.253Z,3.40
2023-02-27T18:44:15.532Z,2.72
2023-02-27T18:46:45.019Z,2.55
2023-02-27T18:49:12.804Z,2.65
2023-02-27T18:51:39.459Z,2.92
2023-02-27T18:54:06.592Z,3.67
2023-02-27T18:56:35.957Z,3.55
2023-02-27T18:59:02.633Z,3.65
2023-02-27T19:01:30.332Z,4.63
2023-02-27T19:03:57.233Z,3.47
2023-02-27T19:06:24.766Z,4.18
2023-02-27T19:08:51.498Z,4.00
2023-02-27T19:11:36.313Z,5.93
2023-02-27T19:14:04.252Z,5.13
2023-02-27T19:16:31.273Z,5.10
2023-02-27T19:18:58.830Z,4.85
2023-02-27T19:21:25.942Z,5.75
2023-02-27T19:23:52.935Z,6.90
2023-02-27T19:26:20.004Z,8.50
2023-02-27T19:28:49.313Z,8.68
2023-02-27T19:31:16.012Z,7.20
2023-02-27T19:33:43.814Z,7.50
2023-02-27T19:36:12.478Z,6.50
2023-02-27T19:38:39.263Z,6.10
2023-02-27T19:41:07.403Z,5.30
2023-02-27T19:43:38.016Z,4.60
2023-02-27T19:46:15.790Z,4.60
2023-02-27T19:48:42.468Z,5.00
2023-02-27T19:51:10.315Z,4.30
2023-02-27T19:53:38.073Z,4.20
2023-02-27T19:56:06.827Z,5.10
2023-02-27T19:58:34.199Z,4.88
2023-02-27T20:01:00.889Z,4.60
2023-02-27T20:03:27.585Z,5.35
2023-02-27T20:05:54.369Z,4.60
2023-02-27T20:08:21.309Z,4.72
2023-02-27T20:10:58.474Z,6.50
2023-02-27T20:13:25.423Z,5.55
2023-02-27T20:15:59.558Z,5.75
2023-02-27T20:18:26.573Z,5.25
2023-02-27T20:21:04.511Z,5.38
2023-02-27T20:23:32.785Z,4.90
2023-02-27T20:25:59.778Z,4.80
2023-02-27T20:28:49.047Z,4.88
2023-02-27T20:31:16.786Z,4.53
2023-02-27T20:33:43.419Z,5.03
2023-02-27T20:36:10.772Z,5.05
2023-02-27T20:38:37.717Z,5.15
2023-02-27T20:41:05.013Z,4.78
2023-02-27T20:43:31.805Z,5.22
2023-02-27T20:46:02.548Z,4.63
2023-02-27T20:48:29.245Z,5.07
2023-02-27T20:50:55.955Z,5.00
2023-02-27T20:53:23.285Z,4.97
2023-02-27T20:55:51.004Z,4.65
2023-02-27T20:58:21.237Z,4.90
2023-02-27T21:00:47.959Z,4.78
2023-02-27T21:03:14.627Z,4.68
2023-02-27T21:05:49.137Z,4.88
2023-02-27T21:08:15.940Z,4.18
2023-02-27T21:10:42.671Z,4.55
2023-02-27T21:13:09.366Z,3.47
2023-02-27T21:15:38.800Z,4.32
2023-02-27T21:18:07.689Z,3.50
2023-02-27T21:20:34.485Z,3.38
2023-02-27T21:23:03.048Z,3.58
2023-02-27T21:25:30.790Z,4.05
2023-02-27T21:27:57.462Z,3.40
2023-02-27T21:30:24.068Z,3.35
2023-02-27T21:32:50.757Z,2.83
2023-02-27T21:35:17.447Z,3.22
2023-02-27T21:37:44.676Z,3.10
2023-02-27T21:40:11.930Z,2.92
2023-02-27T21:42:38.585Z,3.25
2023-02-27T21:45:06.065Z,3.20
2023-02-27T21:47:32.944Z,3.03
2023-02-27T21:49:59.660Z,3.28
2023-02-27T21:52:26.315Z,3.58
2023-02-27T21:54:54.077Z,3.38
2023-02-27T21:57:20.748Z,3.25
2023-02-27T21:59:47.598Z,3.60
2023-02-27T22:02:14.441Z,3.60
2023-02-27T22:04:41.098Z,3.38
2023-02-27T22:07:09.896Z,3.53
2023-02-27T22:09:37.745Z,3.17
2023-02-27T22:12:04.747Z,3.70
2023-02-27T22:14:32.919Z,3.30
2023-02-27T22:16:59.526Z,3.70
2023-02-27T22:19:26.193Z,4.03
2023-02-27T22:21:52.906Z,4.28
2023-02-27T22:24:19.525Z,3.75
2023-02-27T22:26:46.209Z,3.70
2023-02-27T22:29:12.855Z,3.47
2023-02-27T22:31:39.557Z,4.35
2023-02-27T22:34:08.029Z,4.03
2023-02-27T22:36:34.836Z,3.85
2023-02-27T22:39:01.454Z,4.03
2023-02-27T22:41:30.417Z,3.70
2023-02-27T22:43:58.303Z,4.07
2023-02-27T22:46:32.571Z,4.63
2023-02-27T22:49:01.178Z,4.15
2023-02-27T22:51:28.379Z,3.83
2023-02-27T22:53:56.286Z,4.05
2023-02-27T22:56:23.099Z,3.92
2023-02-27T22:58:49.768Z,3.75
2023-02-27T23:01:20.805Z,4.30
2023-02-27T23:03:49.376Z,4.93
2023-02-27T23:06:20.893Z,4.00
2023-02-27T23:08:47.592Z,3.80
2023-02-27T23:11:14.804Z,3.97
2023-02-27T23:13:41.570Z,3.85
2023-02-27T23:16:08.328Z,4.70
2023-02-27T23:18:34.937Z,4.07
2023-02-27T23:21:03.506Z,4.00
2023-02-27T23:23:30.121Z,3.50
2023-02-27T23:26:00.726Z,3.33
2023-02-27T23:28:29.097Z,3.42
2023-02-27T23:30:55.727Z,3.88
2023-02-27T23:33:22.388Z,3.90
2023-02-27T23:35:49.065Z,4.60
2023-02-27T23:38:15.782Z,3.90
2023-02-27T23:40:42.414Z,4.13
2023-02-27T23:43:09.113Z,3.60
2023-02-27T23:45:35.777Z,3.15
2023-02-27T23:48:02.525Z,4.78
2023-02-27T23:50:31.331Z,4.43
2023-02-27T23:52:58.561Z,3.33
2023-02-27T23:55:25.792Z,4.10
2023-02-27T23:57:53.007Z,3.47
